Terminal Aerodrome Forecast
Issued by NWS Blacksburg, VA

Home | Current Version | Previous Version | Text Only | Print | Product List | Glossary On
Versions: 1 2 3 4 5 6 7 8 9 10 11 12 13 14 15 16 17 18 19 20 21 22 23 24 25 26 27
000
FTUS41 KRNK 172325
TAFROA
TAF
KROA 172325Z 1800/1824 13006KT P6SM VCSH OVC040
     FM180600 27008KT P6SM BKN035
     FM181000 29012G21KT P6SM BKN250
     FM181200 30013G24KT P6SM SCT030=

USA.gov is the U.S. government's official web portal to all federal, state and local government web resources and services.